createdAt,value
2017-08-23T00:01:13.332Z,101330.53
2017-08-23T00:03:41.236Z,101323.88
2017-08-23T00:06:09.495Z,101325.18
2017-08-23T00:08:37.403Z,101325.14
2017-08-23T00:11:05.312Z,101326.75
2017-08-23T00:13:33.215Z,101324.12
2017-08-23T00:16:01.110Z,101317.11
2017-08-23T00:18:29.029Z,101320.53
2017-08-23T00:20:56.924Z,101312.67
2017-08-23T00:23:24.827Z,101314.73
2017-08-23T00:25:52.736Z,101316.50
2017-08-23T00:28:20.940Z,101320.42
2017-08-23T00:30:48.840Z,101316.74
2017-08-23T00:33:16.744Z,101310.64
2017-08-23T00:35:50.691Z,101317.21
2017-08-23T00:38:18.600Z,101313.71
2017-08-23T00:40:46.498Z,101315.42
2017-08-23T00:43:14.409Z,101321.17
2017-08-23T00:45:42.306Z,101314.19
2017-08-23T00:48:10.216Z,101310.12
2017-08-23T00:50:38.126Z,101305.38
2017-08-23T00:53:06.035Z,101307.19
2017-08-23T00:55:33.952Z,101309.73
2017-08-23T00:58:01.851Z,101311.11
2017-08-23T01:00:30.059Z,101308.90
2017-08-23T01:02:57.964Z,101307.95
2017-08-23T01:05:25.868Z,101310.47
2017-08-23T01:07:54.074Z,101309.67
2017-08-23T01:10:21.975Z,101311.84
2017-08-23T01:12:49.879Z,101316.23
2017-08-23T01:15:17.779Z,101316.67
2017-08-23T01:17:45.697Z,101311.36
2017-08-23T01:20:13.595Z,101309.21
2017-08-23T01:22:41.513Z,101313.88
2017-08-23T01:25:09.404Z,101309.28
2017-08-23T01:27:37.316Z,101314.13
2017-08-23T01:30:05.214Z,101312.73
2017-08-23T01:32:33.119Z,101310.53
2017-08-23T01:35:01.082Z,101308.37
2017-08-23T01:37:28.997Z,101309.13
2017-08-23T01:39:57.174Z,101299.48
2017-08-23T01:42:25.072Z,101302.45
2017-08-23T01:44:52.978Z,101301.44
2017-08-23T01:47:20.878Z,101301.25
2017-08-23T01:49:48.793Z,101305.75
2017-08-23T01:52:16.711Z,101303.12
2017-08-23T01:54:44.611Z,101293.91
2017-08-23T01:57:12.523Z,101302.59
2017-08-23T01:59:40.418Z,101299.42
2017-08-23T02:02:08.332Z,101298.27
2017-08-23T02:04:36.230Z,101304.73
2017-08-23T02:07:04.139Z,101301.72
2017-08-23T02:09:32.039Z,101305.03
2017-08-23T02:12:00.138Z,101307.70
2017-08-23T02:14:28.044Z,101299.99
2017-08-23T02:16:56.214Z,101305.58
2017-08-23T02:19:24.137Z,101303.78
2017-08-23T02:21:52.047Z,101304.07
2017-08-23T02:24:19.958Z,101303.19
2017-08-23T02:26:47.868Z,101306.50
2017-08-23T02:29:15.928Z,101302.77
2017-08-23T02:31:43.836Z,101304.04
2017-08-23T02:34:11.754Z,101301.02
2017-08-23T02:36:39.667Z,101297.16
2017-08-23T02:39:07.577Z,101296.58
2017-08-23T02:41:35.490Z,101294.86
2017-08-23T02:44:03.392Z,101304.30
2017-08-23T02:46:31.304Z,101303.61
2017-08-23T02:48:59.224Z,101305.83
2017-08-23T02:51:27.352Z,101302.38
2017-08-23T02:53:55.325Z,101302.30
2017-08-23T02:56:23.241Z,101300.64
2017-08-23T02:58:51.151Z,101301.92
2017-08-23T03:01:19.057Z,101304.58
2017-08-23T03:03:46.974Z,101303.34
2017-08-23T03:06:14.866Z,101302.08
2017-08-23T03:08:42.793Z,101298.61
2017-08-23T03:11:10.700Z,101299.16
2017-08-23T03:13:38.612Z,101298.27
2017-08-23T03:16:06.515Z,101301.37
2017-08-23T03:18:34.539Z,101296.96
2017-08-23T03:21:02.451Z,101305.59
2017-08-23T03:23:30.343Z,101302.11
2017-08-23T03:25:58.250Z,101303.41
2017-08-23T03:28:26.147Z,101303.77
2017-08-23T03:30:54.068Z,101313.42
2017-08-23T03:33:22.019Z,101312.46
2017-08-23T03:35:49.923Z,101305.46
2017-08-23T03:38:17.832Z,101312.95
2017-08-23T03:40:45.742Z,101311.28
2017-08-23T03:43:13.655Z,101310.41
2017-08-23T03:45:41.563Z,101318.19
2017-08-23T03:48:09.783Z,101315.99
2017-08-23T03:50:37.816Z,101320.88
2017-08-23T03:53:05.716Z,101324.95
2017-08-23T03:55:33.610Z,101321.42
2017-08-23T03:58:01.524Z,101327.11
2017-08-23T04:00:29.478Z,101320.14
2017-08-23T04:02:57.378Z,101325.23
2017-08-23T04:05:25.274Z,101322.80
2017-08-23T04:07:53.286Z,101328.97
2017-08-23T04:10:21.226Z,101328.05
2017-08-23T04:12:49.488Z,101326.26
2017-08-23T04:15:17.401Z,101329.91
2017-08-23T04:17:45.316Z,101331.70
2017-08-23T04:20:13.233Z,101334.36
2017-08-23T04:22:41.148Z,101329.20
2017-08-23T04:25:09.044Z,101333.99
2017-08-23T04:27:37.063Z,101332.33
2017-08-23T04:30:04.972Z,101331.11
2017-08-23T04:32:32.889Z,101328.55
2017-08-23T04:35:00.797Z,101327.79
2017-08-23T04:37:28.702Z,101328.84
2017-08-23T04:39:56.602Z,101331.50
2017-08-23T04:42:24.666Z,101334.32
2017-08-23T04:44:52.562Z,101327.05
2017-08-23T04:47:20.472Z,101328.80
2017-08-23T04:49:48.387Z,101325.15
2017-08-23T04:52:16.360Z,101329.32
2017-08-23T04:54:44.318Z,101327.31
2017-08-23T04:57:12.210Z,101327.48
2017-08-23T04:59:40.128Z,101328.45
2017-08-23T05:02:08.090Z,101325.81
2017-08-23T05:04:35.990Z,101332.13
2017-08-23T05:07:03.887Z,101325.85
2017-08-23T05:09:31.930Z,101319.50
2017-08-23T05:11:59.868Z,101330.24
2017-08-23T05:14:27.773Z,101325.02
2017-08-23T05:16:55.994Z,101325.39
2017-08-23T05:19:23.900Z,101322.05
2017-08-23T05:21:51.811Z,101323.27
2017-08-23T05:24:19.707Z,101321.45
2017-08-23T05:26:47.655Z,101319.69
2017-08-23T05:29:15.551Z,101315.36
2017-08-23T05:31:43.456Z,101318.80
2017-08-23T05:34:11.356Z,101317.79
2017-08-23T05:36:39.606Z,101310.83
2017-08-23T05:39:07.506Z,101317.27
2017-08-23T05:41:35.413Z,101315.81
2017-08-23T05:44:03.322Z,101313.64
2017-08-23T16:32:46.284Z,101109.52
2017-08-23T16:35:14.624Z,101108.11
2017-08-23T16:37:42.967Z,101110.06
2017-08-23T16:40:11.527Z,101102.47
2017-08-23T16:42:39.877Z,101097.83
2017-08-23T16:45:08.224Z,101109.61
2017-08-23T16:47:36.860Z,101106.22
2017-08-23T16:50:06.185Z,101105.92
2017-08-23T16:52:34.563Z,101105.46
2017-08-23T16:55:02.933Z,101089.62
2017-08-23T16:57:31.294Z,101094.70
2017-08-23T16:59:59.658Z,101099.45
2017-08-23T17:02:28.069Z,101093.28
2017-08-23T17:04:56.525Z,101091.06
2017-08-23T17:07:24.880Z,101095.03
2017-08-23T17:09:53.243Z,101100.52
2017-08-23T17:12:21.595Z,101099.09
2017-08-23T17:14:49.976Z,101101.19
2017-08-23T17:17:18.354Z,101104.16
2017-08-23T17:19:46.695Z,101099.98
2017-08-23T17:22:15.109Z,101093.02
2017-08-23T17:24:43.565Z,101088.83
2017-08-23T17:27:11.937Z,101098.50
2017-08-23T17:29:40.288Z,101097.54
2017-08-23T17:32:08.654Z,101097.14
2017-08-23T17:34:37.102Z,101094.13
2017-08-23T17:37:05.469Z,101099.30
2017-08-23T17:39:33.829Z,101095.84
2017-08-23T17:42:02.310Z,101093.42
2017-08-23T17:44:30.659Z,101092.14
2017-08-23T17:46:59.000Z,101102.09
2017-08-23T17:49:27.358Z,101097.87
2017-08-23T17:51:55.711Z,101101.44
2017-08-23T17:54:24.556Z,101101.72
2017-08-23T17:56:52.911Z,101110.19
2017-08-23T17:59:21.285Z,101109.95
2017-08-23T18:01:49.696Z,101107.86
2017-08-23T18:04:18.047Z,101109.64
2017-08-23T18:06:46.698Z,101110.02
2017-08-23T18:09:15.132Z,101111.82
2017-08-23T18:11:43.493Z,101108.30
2017-08-23T18:14:12.129Z,101106.81
2017-08-23T18:16:40.512Z,101103.06
2017-08-23T18:19:08.860Z,101102.70
2017-08-23T18:21:37.247Z,101105.53
2017-08-23T18:24:05.661Z,101107.98
2017-08-23T18:26:34.029Z,101107.38
2017-08-23T18:29:02.373Z,101108.34
2017-08-23T18:31:30.737Z,101107.11
2017-08-23T18:33:59.090Z,101115.26
2017-08-23T18:36:27.448Z,101114.13
2017-08-23T18:38:55.796Z,101109.36
2017-08-23T18:41:24.165Z,101112.58
2017-08-23T18:43:52.507Z,101116.62
2017-08-23T18:46:21.037Z,101115.41
2017-08-23T18:48:49.383Z,101116.48
2017-08-23T18:51:17.773Z,101113.98
2017-08-23T18:53:46.123Z,101114.09
2017-08-23T18:56:14.476Z,101119.52
2017-08-23T18:58:42.856Z,101118.73
2017-08-23T19:01:11.210Z,101125.41
2017-08-23T19:03:39.564Z,101119.39
2017-08-23T19:06:07.933Z,101119.90
2017-08-23T19:08:36.297Z,101113.02
2017-08-23T19:11:04.639Z,101115.23
2017-08-23T19:13:33.216Z,101114.84
2017-08-23T19:16:01.573Z,101113.12
2017-08-23T19:18:29.923Z,101110.98
2017-08-23T19:20:58.365Z,101112.36
2017-08-23T19:23:26.734Z,101111.98
2017-08-23T19:25:55.105Z,101113.35
2017-08-23T19:28:23.485Z,101110.31
2017-08-23T19:30:51.840Z,101111.77
2017-08-23T19:33:20.192Z,101113.59
2017-08-23T19:35:48.876Z,101109.70
2017-08-23T19:38:17.238Z,101111.94
2017-08-23T19:40:45.597Z,101113.70
2017-08-23T19:43:13.949Z,101110.23
2017-08-23T19:45:42.451Z,101109.36
2017-08-23T19:48:10.824Z,101107.27
2017-08-23T19:50:39.198Z,101103.79
2017-08-23T19:53:07.590Z,101097.23
2017-08-23T19:55:36.159Z,101101.25
2017-08-23T19:58:04.533Z,101100.83
2017-08-23T20:00:32.879Z,101104.34
2017-08-23T20:03:01.243Z,101103.97
2017-08-23T20:05:29.605Z,101105.36
2017-08-23T20:07:57.984Z,101098.77
2017-08-23T20:10:26.345Z,101100.54
2017-08-23T20:12:54.712Z,101101.01
2017-08-23T20:15:23.069Z,101103.22
2017-08-23T20:17:51.441Z,101101.00
2017-08-23T20:20:19.791Z,101108.16
2017-08-23T20:22:48.151Z,101100.72
2017-08-23T20:25:16.503Z,101105.55
2017-08-23T20:27:44.869Z,101101.59
2017-08-23T20:30:13.227Z,101102.47
2017-08-23T20:32:41.588Z,101102.91
2017-08-23T20:35:09.944Z,101101.70
2017-08-23T20:37:38.301Z,101098.27
2017-08-23T20:40:06.673Z,101103.12
2017-08-23T20:42:35.038Z,101099.20
2017-08-23T20:45:03.396Z,101097.01
2017-08-23T20:47:31.748Z,101097.01
2017-08-23T20:50:00.130Z,101105.89
2017-08-23T20:52:28.561Z,101104.16
2017-08-23T20:54:57.076Z,101108.14
2017-08-23T20:57:25.441Z,101104.66
2017-08-23T20:59:53.924Z,101104.69
2017-08-23T21:02:22.281Z,101111.74
2017-08-23T21:04:50.660Z,101110.05
2017-08-23T21:07:19.731Z,101104.34
2017-08-23T21:09:48.294Z,101106.09
2017-08-23T21:12:16.654Z,101107.38
2017-08-23T21:14:45.029Z,101111.36
2017-08-23T21:19:45.573Z,101107.34
2017-08-23T21:22:13.937Z,101106.54
2017-08-23T21:24:42.291Z,101107.38
2017-08-23T21:27:10.651Z,101102.62
2017-08-23T21:29:39.011Z,101100.84
2017-08-23T21:32:07.376Z,101097.78
2017-08-23T21:34:35.773Z,101104.81
2017-08-23T21:37:04.145Z,101100.90
2017-08-23T21:39:32.508Z,101094.33
2017-08-23T21:42:01.158Z,101096.95
2017-08-23T21:44:29.544Z,101098.68
2017-08-23T21:46:57.910Z,101091.67
2017-08-23T21:49:26.280Z,101090.06
2017-08-23T21:51:54.646Z,101087.83
2017-08-23T21:54:23.025Z,101087.37
2017-08-23T21:56:51.384Z,101083.42
2017-08-23T21:59:19.752Z,101082.99
2017-08-23T22:01:48.108Z,101072.89
2017-08-23T22:04:16.476Z,101075.09
2017-08-23T22:06:44.834Z,101079.48
2017-08-23T22:09:13.206Z,101079.04
2017-08-23T22:11:41.565Z,101075.58
2017-08-23T22:14:09.937Z,101079.53
2017-08-23T22:16:38.305Z,101070.31
2017-08-23T22:19:06.678Z,101079.09
2017-08-23T22:21:35.059Z,101081.30
2017-08-23T22:24:03.434Z,101079.11
2017-08-23T22:26:31.844Z,101077.80
2017-08-23T22:29:00.215Z,101080.44
2017-08-23T22:31:28.574Z,101083.55
2017-08-23T22:33:57.293Z,101076.98
2017-08-23T22:36:25.640Z,101078.36
2017-08-23T22:38:54.016Z,101080.12
2017-08-23T22:41:22.385Z,101088.06
2017-08-23T22:43:50.749Z,101077.53
2017-08-23T22:46:19.104Z,101076.22
2017-08-23T22:48:47.459Z,101075.34
2017-08-23T22:51:15.834Z,101079.33
2017-08-23T22:53:44.205Z,101073.19
2017-08-23T22:56:12.567Z,101072.31
2017-08-23T22:58:40.921Z,101068.80
2017-08-23T23:01:09.279Z,101069.68
2017-08-23T23:03:37.637Z,101074.50
2017-08-23T23:06:06.338Z,101072.75
2017-08-23T23:08:34.705Z,101068.80
2017-08-23T23:11:03.069Z,101071.02
2017-08-23T23:13:31.463Z,101071.02
2017-08-23T23:15:59.806Z,101067.52
2017-08-23T23:18:28.166Z,101072.34
2017-08-23T23:20:56.524Z,101069.27
2017-08-23T23:23:24.892Z,101062.25
2017-08-23T23:25:53.264Z,101067.10
2017-08-23T23:28:21.641Z,101066.66
2017-08-23T23:30:50.656Z,101057.45
2017-08-23T23:33:19.016Z,101055.25
2017-08-23T23:35:47.377Z,101058.35
2017-08-23T23:38:15.735Z,101050.89
2017-08-23T23:40:44.101Z,101044.73
2017-08-23T23:43:12.461Z,101040.81
2017-08-23T23:45:40.815Z,101039.05
2017-08-23T23:48:09.392Z,101031.59
2017-08-23T23:50:37.751Z,101032.91
2017-08-23T23:53:06.110Z,101033.36
2017-08-23T23:55:34.463Z,101033.36
2017-08-23T23:58:02.808Z,101039.92
